sensor_id;sensor_type;location;lat;lon;timestamp;temperature;humidity
7844;DHT22;3967;48.702;9.326;2022-12-22T00:01:33;8.10;99.90
7844;DHT22;3967;48.702;9.326;2022-12-22T00:04:19;8.00;99.90
7844;DHT22;3967;48.702;9.326;2022-12-22T00:07:05;7.90;99.90
7844;DHT22;3967;48.702;9.326;2022-12-22T00:09:51;8.00;99.90
7844;DHT22;3967;48.702;9.326;2022-12-22T00:12:37;8.00;99.90
7844;DHT22;3967;48.702;9.326;2022-12-22T00:15:23;8.10;99.90
7844;DHT22;3967;48.702;9.326;2022-12-22T00:18:13;8.00;99.90
7844;DHT22;3967;48.702;9.326;2022-12-22T00:20:59;8.00;99.90
7844;DHT22;3967;48.702;9.326;2022-12-22T00:23:45;8.00;99.90
7844;DHT22;3967;48.702;9.326;2022-12-22T00:26:33;8.00;99.90
7844;DHT22;3967;48.702;9.326;2022-12-22T00:29:18;8.00;99.90
7844;DHT22;3967;48.702;9.326;2022-12-22T00:32:04;8.10;99.90
7844;DHT22;3967;48.702;9.326;2022-12-22T00:34:50;8.00;99.90
7844;DHT22;3967;48.702;9.326;2022-12-22T00:37:36;8.10;99.90
7844;DHT22;3967;48.702;9.326;2022-12-22T00:40:26;8.10;99.90
7844;DHT22;3967;48.702;9.326;2022-12-22T00:43:12;8.10;99.90
7844;DHT22;3967;48.702;9.326;2022-12-22T00:45:59;8.10;99.90
7844;DHT22;3967;48.702;9.326;2022-12-22T00:48:46;8.10;99.90
7844;DHT22;3967;48.702;9.326;2022-12-22T00:51:32;8.10;99.90
7844;DHT22;3967;48.702;9.326;2022-12-22T00:54:19;8.20;99.90
7844;DHT22;3967;48.702;9.326;2022-12-22T00:57:04;8.20;99.90
7844;DHT22;3967;48.702;9.326;2022-12-22T00:59:50;8.20;99.90
7844;DHT22;3967;48.702;9.326;2022-12-22T01:02:36;8.30;99.90
7844;DHT22;3967;48.702;9.326;2022-12-22T01:05:22;8.30;99.90
7844;DHT22;3967;48.702;9.326;2022-12-22T01:08:08;8.30;99.90
7844;DHT22;3967;48.702;9.326;2022-12-22T01:10:54;8.40;99.90
7844;DHT22;3967;48.702;9.326;2022-12-22T01:13:39;8.40;99.90
7844;DHT22;3967;48.702;9.326;2022-12-22T01:16:24;8.40;99.90
7844;DHT22;3967;48.702;9.326;2022-12-22T01:19:10;8.50;99.90
7844;DHT22;3967;48.702;9.326;2022-12-22T01:24:24;8.50;99.90
7844;DHT22;3967;48.702;9.326;2022-12-22T01:27:09;8.50;99.90
7844;DHT22;3967;48.702;9.326;2022-12-22T01:29:55;8.50;99.90
7844;DHT22;3967;48.702;9.326;2022-12-22T01:32:40;8.60;99.90
7844;DHT22;3967;48.702;9.326;2022-12-22T01:35:29;8.60;99.90
7844;DHT22;3967;48.702;9.326;2022-12-22T01:38:15;8.70;99.90
7844;DHT22;3967;48.702;9.326;2022-12-22T01:41:01;8.70;99.90
7844;DHT22;3967;48.702;9.326;2022-12-22T01:43:47;8.70;99.90
7844;DHT22;3967;48.702;9.326;2022-12-22T01:46:36;8.80;99.90
7844;DHT22;3967;48.702;9.326;2022-12-22T01:49:38;8.80;99.90
7844;DHT22;3967;48.702;9.326;2022-12-22T01:52:29;8.80;99.90
7844;DHT22;3967;48.702;9.326;2022-12-22T01:55:20;8.90;99.90
7844;DHT22;3967;48.702;9.326;2022-12-22T01:58:15;8.90;99.90
7844;DHT22;3967;48.702;9.326;2022-12-22T02:01:02;8.90;99.90
7844;DHT22;3967;48.702;9.326;2022-12-22T02:03:47;8.90;99.90
7844;DHT22;3967;48.702;9.326;2022-12-22T02:06:35;8.90;99.90
7844;DHT22;3967;48.702;9.326;2022-12-22T02:09:48;8.90;99.90
7844;DHT22;3967;48.702;9.326;2022-12-22T02:15:55;9.00;99.90
7844;DHT22;3967;48.702;9.326;2022-12-22T02:18:53;9.00;99.90
7844;DHT22;3967;48.702;9.326;2022-12-22T02:22:20;9.00;99.90
7844;DHT22;3967;48.702;9.326;2022-12-22T02:25:20;9.00;99.90
7844;DHT22;3967;48.702;9.326;2022-12-22T02:28:07;9.00;99.90
7844;DHT22;3967;48.702;9.326;2022-12-22T02:30:53;9.00;99.90
7844;DHT22;3967;48.702;9.326;2022-12-22T02:33:38;9.00;99.90
7844;DHT22;3967;48.702;9.326;2022-12-22T02:51:40;9.10;99.90
7844;DHT22;3967;48.702;9.326;2022-12-22T02:54:27;9.10;99.90
7844;DHT22;3967;48.702;9.326;2022-12-22T02:57:16;9.10;99.90
7844;DHT22;3967;48.702;9.326;2022-12-22T03:00:03;9.20;99.90
7844;DHT22;3967;48.702;9.326;2022-12-22T03:02:49;9.20;99.90
7844;DHT22;3967;48.702;9.326;2022-12-22T03:05:34;9.20;99.90
7844;DHT22;3967;48.702;9.326;2022-12-22T03:08:20;9.20;99.90
7844;DHT22;3967;48.702;9.326;2022-12-22T03:11:05;9.20;99.90
7844;DHT22;3967;48.702;9.326;2022-12-22T03:13:50;9.20;99.90
7844;DHT22;3967;48.702;9.326;2022-12-22T03:16:36;9.20;99.90
7844;DHT22;3967;48.702;9.326;2022-12-22T03:19:21;9.20;99.90
7844;DHT22;3967;48.702;9.326;2022-12-22T03:22:07;9.30;99.90
7844;DHT22;3967;48.702;9.326;2022-12-22T03:24:52;9.30;99.90
7844;DHT22;3967;48.702;9.326;2022-12-22T03:27:37;9.30;99.90
7844;DHT22;3967;48.702;9.326;2022-12-22T03:30:05;9.40;99.90
7844;DHT22;3967;48.702;9.326;2022-12-22T03:32:31;9.40;99.90
7844;DHT22;3967;48.702;9.326;2022-12-22T03:34:58;9.40;99.90
7844;DHT22;3967;48.702;9.326;2022-12-22T03:37:25;9.40;99.90
7844;DHT22;3967;48.702;9.326;2022-12-22T03:39:51;9.50;99.90
7844;DHT22;3967;48.702;9.326;2022-12-22T03:42:18;9.40;99.90
7844;DHT22;3967;48.702;9.326;2022-12-22T03:45:04;9.50;99.90
7844;DHT22;3967;48.702;9.326;2022-12-22T03:47:49;9.40;99.90
7844;DHT22;3967;48.702;9.326;2022-12-22T03:50:16;9.30;99.90
7844;DHT22;3967;48.702;9.326;2022-12-22T03:52:43;9.40;99.90
7844;DHT22;3967;48.702;9.326;2022-12-22T03:55:09;9.40;99.90
7844;DHT22;3967;48.702;9.326;2022-12-22T03:57:36;9.50;99.90
7844;DHT22;3967;48.702;9.326;2022-12-22T04:00:03;9.40;99.90
7844;DHT22;3967;48.702;9.326;2022-12-22T04:02:30;9.50;99.90
7844;DHT22;3967;48.702;9.326;2022-12-22T04:04:57;9.50;99.90
7844;DHT22;3967;48.702;9.326;2022-12-22T04:07:24;9.50;99.90
7844;DHT22;3967;48.702;9.326;2022-12-22T04:09:50;9.50;99.90
7844;DHT22;3967;48.702;9.326;2022-12-22T04:12:36;9.50;99.90
7844;DHT22;3967;48.702;9.326;2022-12-22T04:15:29;9.50;99.90
7844;DHT22;3967;48.702;9.326;2022-12-22T04:17:57;9.50;99.90
7844;DHT22;3967;48.702;9.326;2022-12-22T04:20:25;9.60;99.90
7844;DHT22;3967;48.702;9.326;2022-12-22T04:22:56;9.60;99.90
7844;DHT22;3967;48.702;9.326;2022-12-22T04:25:24;9.60;99.90
7844;DHT22;3967;48.702;9.326;2022-12-22T04:27:51;9.60;99.90
7844;DHT22;3967;48.702;9.326;2022-12-22T04:30:17;9.60;99.90
7844;DHT22;3967;48.702;9.326;2022-12-22T04:32:44;9.50;99.90
7844;DHT22;3967;48.702;9.326;2022-12-22T04:35:11;9.60;99.90
7844;DHT22;3967;48.702;9.326;2022-12-22T04:37:38;9.60;99.90
7844;DHT22;3967;48.702;9.326;2022-12-22T04:40:05;9.60;99.90
7844;DHT22;3967;48.702;9.326;2022-12-22T04:42:32;9.60;99.90
7844;DHT22;3967;48.702;9.326;2022-12-22T04:44:58;9.60;99.90
7844;DHT22;3967;48.702;9.326;2022-12-22T04:47:25;9.60;99.90
7844;DHT22;3967;48.702;9.326;2022-12-22T04:49:52;9.60;99.90
7844;DHT22;3967;48.702;9.326;2022-12-22T04:52:21;9.70;99.90
7844;DHT22;3967;48.702;9.326;2022-12-22T04:54:47;9.80;99.90
7844;DHT22;3967;48.702;9.326;2022-12-22T04:57:14;9.70;99.90
7844;DHT22;3967;48.702;9.326;2022-12-22T04:59:41;9.80;99.90
7844;DHT22;3967;48.702;9.326;2022-12-22T05:02:08;9.80;99.90
7844;DHT22;3967;48.702;9.326;2022-12-22T05:04:34;9.80;99.90
7844;DHT22;3967;48.702;9.326;2022-12-22T05:07:01;9.70;99.90
7844;DHT22;3967;48.702;9.326;2022-12-22T05:09:28;9.70;99.90
7844;DHT22;3967;48.702;9.326;2022-12-22T05:11:55;9.80;99.90
7844;DHT22;3967;48.702;9.326;2022-12-22T05:14:21;9.80;99.90
7844;DHT22;3967;48.702;9.326;2022-12-22T05:16:48;9.80;99.90
7844;DHT22;3967;48.702;9.326;2022-12-22T05:19:15;9.80;99.90
7844;DHT22;3967;48.702;9.326;2022-12-22T05:21:42;9.80;99.90
7844;DHT22;3967;48.702;9.326;2022-12-22T05:24:08;9.80;99.90
7844;DHT22;3967;48.702;9.326;2022-12-22T05:26:35;9.80;99.90
7844;DHT22;3967;48.702;9.326;2022-12-22T05:29:02;9.80;99.90
7844;DHT22;3967;48.702;9.326;2022-12-22T05:31:28;9.80;99.90
7844;DHT22;3967;48.702;9.326;2022-12-22T05:33:55;9.80;99.90
7844;DHT22;3967;48.702;9.326;2022-12-22T05:36:22;9.90;99.90
7844;DHT22;3967;48.702;9.326;2022-12-22T05:38:48;9.90;99.90
7844;DHT22;3967;48.702;9.326;2022-12-22T05:41:15;9.90;99.90
7844;DHT22;3967;48.702;9.326;2022-12-22T05:43:42;9.90;99.90
7844;DHT22;3967;48.702;9.326;2022-12-22T05:46:09;9.90;99.90
7844;DHT22;3967;48.702;9.326;2022-12-22T05:48:37;9.80;99.90
7844;DHT22;3967;48.702;9.326;2022-12-22T05:51:07;9.80;99.90
7844;DHT22;3967;48.702;9.326;2022-12-22T05:53:36;9.80;99.90
7844;DHT22;3967;48.702;9.326;2022-12-22T05:56:03;9.80;99.90
7844;DHT22;3967;48.702;9.326;2022-12-22T05:58:30;9.80;99.90
7844;DHT22;3967;48.702;9.326;2022-12-22T06:00:58;9.90;99.90
7844;DHT22;3967;48.702;9.326;2022-12-22T06:03:26;9.90;99.90
7844;DHT22;3967;48.702;9.326;2022-12-22T06:05:53;10.00;99.90
7844;DHT22;3967;48.702;9.326;2022-12-22T06:08:20;10.00;99.90
7844;DHT22;3967;48.702;9.326;2022-12-22T06:10:47;10.00;99.90
7844;DHT22;3967;48.702;9.326;2022-12-22T06:13:14;10.00;99.90
7844;DHT22;3967;48.702;9.326;2022-12-22T06:15:41;10.00;99.90
7844;DHT22;3967;48.702;9.326;2022-12-22T06:18:07;10.00;99.90
7844;DHT22;3967;48.702;9.326;2022-12-22T06:20:34;10.00;99.90
7844;DHT22;3967;48.702;9.326;2022-12-22T06:23:01;10.00;99.90
7844;DHT22;3967;48.702;9.326;2022-12-22T06:25:28;10.00;99.90
7844;DHT22;3967;48.702;9.326;2022-12-22T06:27:54;10.00;99.90
7844;DHT22;3967;48.702;9.326;2022-12-22T06:30:21;10.00;99.90
7844;DHT22;3967;48.702;9.326;2022-12-22T06:32:59;10.00;99.90
7844;DHT22;3967;48.702;9.326;2022-12-22T06:35:26;10.00;99.90
7844;DHT22;3967;48.702;9.326;2022-12-22T06:37:53;9.90;99.90
7844;DHT22;3967;48.702;9.326;2022-12-22T06:40:19;10.00;99.90
7844;DHT22;3967;48.702;9.326;2022-12-22T06:42:46;10.00;99.90
7844;DHT22;3967;48.702;9.326;2022-12-22T06:45:36;10.00;99.90
7844;DHT22;3967;48.702;9.326;2022-12-22T06:48:04;10.00;99.90
7844;DHT22;3967;48.702;9.326;2022-12-22T06:50:30;9.90;99.90
7844;DHT22;3967;48.702;9.326;2022-12-22T06:52:57;9.90;99.90
7844;DHT22;3967;48.702;9.326;2022-12-22T06:55:24;9.90;99.90
7844;DHT22;3967;48.702;9.326;2022-12-22T06:57:50;9.80;99.90
7844;DHT22;3967;48.702;9.326;2022-12-22T07:00:17;9.80;99.90
7844;DHT22;3967;48.702;9.326;2022-12-22T07:02:44;9.80;99.90
7844;DHT22;3967;48.702;9.326;2022-12-22T07:05:11;9.90;99.90
7844;DHT22;3967;48.702;9.326;2022-12-22T07:07:38;9.90;99.90
7844;DHT22;3967;48.702;9.326;2022-12-22T07:10:05;9.90;99.90
7844;DHT22;3967;48.702;9.326;2022-12-22T07:12:32;10.00;99.90
7844;DHT22;3967;48.702;9.326;2022-12-22T07:14:59;9.90;99.90
7844;DHT22;3967;48.702;9.326;2022-12-22T07:17:26;9.90;99.90
7844;DHT22;3967;48.702;9.326;2022-12-22T07:19:52;9.80;99.90
7844;DHT22;3967;48.702;9.326;2022-12-22T07:22:19;9.90;99.90
7844;DHT22;3967;48.702;9.326;2022-12-22T07:24:54;9.90;99.90
7844;DHT22;3967;48.702;9.326;2022-12-22T07:27:21;9.90;99.90
7844;DHT22;3967;48.702;9.326;2022-12-22T07:29:48;9.80;99.90
7844;DHT22;3967;48.702;9.326;2022-12-22T07:32:15;9.90;99.90
7844;DHT22;3967;48.702;9.326;2022-12-22T07:34:41;9.90;99.90
7844;DHT22;3967;48.702;9.326;2022-12-22T07:37:08;9.90;99.90
7844;DHT22;3967;48.702;9.326;2022-12-22T07:39:35;9.90;99.90
7844;DHT22;3967;48.702;9.326;2022-12-22T07:42:01;9.90;99.90
7844;DHT22;3967;48.702;9.326;2022-12-22T07:44:47;9.90;99.90
7844;DHT22;3967;48.702;9.326;2022-12-22T07:47:13;9.90;99.90
7844;DHT22;3967;48.702;9.326;2022-12-22T07:49:40;9.90;99.90
7844;DHT22;3967;48.702;9.326;2022-12-22T07:52:26;9.80;99.90
7844;DHT22;3967;48.702;9.326;2022-12-22T07:54:52;9.90;99.90
7844;DHT22;3967;48.702;9.326;2022-12-22T07:57:19;9.90;99.90
7844;DHT22;3967;48.702;9.326;2022-12-22T07:59:46;9.90;99.90
7844;DHT22;3967;48.702;9.326;2022-12-22T08:02:13;9.80;99.90
7844;DHT22;3967;48.702;9.326;2022-12-22T08:04:40;9.80;99.90
7844;DHT22;3967;48.702;9.326;2022-12-22T08:07:07;9.70;99.90
7844;DHT22;3967;48.702;9.326;2022-12-22T08:09:34;9.70;99.90
7844;DHT22;3967;48.702;9.326;2022-12-22T08:12:01;9.70;99.90
7844;DHT22;3967;48.702;9.326;2022-12-22T08:14:27;9.70;99.90
7844;DHT22;3967;48.702;9.326;2022-12-22T08:16:54;9.70;99.90
7844;DHT22;3967;48.702;9.326;2022-12-22T08:19:21;9.70;99.90
7844;DHT22;3967;48.702;9.326;2022-12-22T08:21:47;9.80;99.90
7844;DHT22;3967;48.702;9.326;2022-12-22T08:24:19;9.70;99.90
7844;DHT22;3967;48.702;9.326;2022-12-22T08:26:48;9.80;99.90
7844;DHT22;3967;48.702;9.326;2022-12-22T08:29:29;9.70;99.90
7844;DHT22;3967;48.702;9.326;2022-12-22T08:31:59;9.70;99.90
7844;DHT22;3967;48.702;9.326;2022-12-22T08:34:26;9.70;99.90
7844;DHT22;3967;48.702;9.326;2022-12-22T08:36:55;9.80;99.90
7844;DHT22;3967;48.702;9.326;2022-12-22T08:39:24;9.80;99.90
7844;DHT22;3967;48.702;9.326;2022-12-22T08:41:51;9.80;99.90
7844;DHT22;3967;48.702;9.326;2022-12-22T08:44:26;9.90;99.90
7844;DHT22;3967;48.702;9.326;2022-12-22T08:46:55;10.10;99.90
7844;DHT22;3967;48.702;9.326;2022-12-22T08:49:22;10.10;99.90
7844;DHT22;3967;48.702;9.326;2022-12-22T08:51:50;10.20;99.90
7844;DHT22;3967;48.702;9.326;2022-12-22T08:54:17;10.20;99.90
7844;DHT22;3967;48.702;9.326;2022-12-22T08:56:44;10.20;99.90
7844;DHT22;3967;48.702;9.326;2022-12-22T08:59:12;10.20;99.90
7844;DHT22;3967;48.702;9.326;2022-12-22T09:01:40;10.30;99.90
7844;DHT22;3967;48.702;9.326;2022-12-22T09:04:17;10.20;99.90
7844;DHT22;3967;48.702;9.326;2022-12-22T09:06:45;10.20;99.90
7844;DHT22;3967;48.702;9.326;2022-12-22T09:09:13;10.50;99.90
7844;DHT22;3967;48.702;9.326;2022-12-22T09:11:40;10.60;99.90
7844;DHT22;3967;48.702;9.326;2022-12-22T09:14:08;10.50;99.90
7844;DHT22;3967;48.702;9.326;2022-12-22T09:16:35;10.50;99.90
7844;DHT22;3967;48.702;9.326;2022-12-22T09:19:03;10.60;99.90
7844;DHT22;3967;48.702;9.326;2022-12-22T09:21:30;10.80;99.90
7844;DHT22;3967;48.702;9.326;2022-12-22T09:23:57;10.80;99.90
7844;DHT22;3967;48.702;9.326;2022-12-22T09:26:26;10.80;99.90
7844;DHT22;3967;48.702;9.326;2022-12-22T09:28:54;10.60;99.90
7844;DHT22;3967;48.702;9.326;2022-12-22T09:31:22;10.70;99.90
7844;DHT22;3967;48.702;9.326;2022-12-22T09:33:50;10.60;99.90
7844;DHT22;3967;48.702;9.326;2022-12-22T09:36:19;10.50;99.90
7844;DHT22;3967;48.702;9.326;2022-12-22T09:38:46;10.50;99.90
7844;DHT22;3967;48.702;9.326;2022-12-22T09:44:05;10.50;99.90
7844;DHT22;3967;48.702;9.326;2022-12-22T09:46:36;10.30;99.90
7844;DHT22;3967;48.702;9.326;2022-12-22T09:49:05;10.20;99.90
7844;DHT22;3967;48.702;9.326;2022-12-22T09:51:41;10.20;99.90
7844;DHT22;3967;48.702;9.326;2022-12-22T09:54:10;10.10;99.90
7844;DHT22;3967;48.702;9.326;2022-12-22T09:56:38;10.10;99.90
7844;DHT22;3967;48.702;9.326;2022-12-22T09:59:14;10.00;99.90
7844;DHT22;3967;48.702;9.326;2022-12-22T10:07:30;10.00;99.90
7844;DHT22;3967;48.702;9.326;2022-12-22T10:10:05;10.00;99.90
7844;DHT22;3967;48.702;9.326;2022-12-22T10:12:32;10.10;99.90
7844;DHT22;3967;48.702;9.326;2022-12-22T10:14:59;10.10;99.90
7844;DHT22;3967;48.702;9.326;2022-12-22T10:17:32;10.00;99.90
7844;DHT22;3967;48.702;9.326;2022-12-22T10:27:54;10.00;99.90
7844;DHT22;3967;48.702;9.326;2022-12-22T10:30:31;10.00;99.90
7844;DHT22;3967;48.702;9.326;2022-12-22T10:38:27;10.20;99.90
7844;DHT22;3967;48.702;9.326;2022-12-22T10:43:46;10.10;99.90
7844;DHT22;3967;48.702;9.326;2022-12-22T10:46:14;10.00;99.90
7844;DHT22;3967;48.702;9.326;2022-12-22T10:48:41;10.10;99.90
7844;DHT22;3967;48.702;9.326;2022-12-22T10:51:12;10.10;99.90
7844;DHT22;3967;48.702;9.326;2022-12-22T10:53:48;10.10;99.90
7844;DHT22;3967;48.702;9.326;2022-12-22T10:56:26;10.10;99.90
7844;DHT22;3967;48.702;9.326;2022-12-22T11:01:33;10.10;99.90
7844;DHT22;3967;48.702;9.326;2022-12-22T11:04:24;10.10;99.90
7844;DHT22;3967;48.702;9.326;2022-12-22T11:06:53;10.10;99.90
7844;DHT22;3967;48.702;9.326;2022-12-22T11:09:20;10.10;99.90
7844;DHT22;3967;48.702;9.326;2022-12-22T11:26:23;10.20;99.90
7844;DHT22;3967;48.702;9.326;2022-12-22T11:34:59;10.40;99.90
7844;DHT22;3967;48.702;9.326;2022-12-22T11:49:04;10.40;99.90
7844;DHT22;3967;48.702;9.326;2022-12-22T11:54:39;10.50;99.90
7844;DHT22;3967;48.702;9.326;2022-12-22T12:00:07;10.50;99.90
7844;DHT22;3967;48.702;9.326;2022-12-22T12:05:33;10.60;99.90
7844;DHT22;3967;48.702;9.326;2022-12-22T12:10:45;10.60;99.90
7844;DHT22;3967;48.702;9.326;2022-12-22T12:22:12;10.90;99.90
7844;DHT22;3967;48.702;9.326;2022-12-22T12:32:52;11.10;99.90
7844;DHT22;3967;48.702;9.326;2022-12-22T12:37:56;11.40;99.90
7844;DHT22;3967;48.702;9.326;2022-12-22T12:42:53;11.30;99.90
7844;DHT22;3967;48.702;9.326;2022-12-22T12:45:35;11.30;99.90
7844;DHT22;3967;48.702;9.326;2022-12-22T12:50:52;11.20;99.90
7844;DHT22;3967;48.702;9.326;2022-12-22T12:53:20;11.20;99.90
7844;DHT22;3967;48.702;9.326;2022-12-22T13:03:55;11.20;99.90
7844;DHT22;3967;48.702;9.326;2022-12-22T13:06:49;11.30;99.90
7844;DHT22;3967;48.702;9.326;2022-12-22T13:09:22;11.20;99.90
7844;DHT22;3967;48.702;9.326;2022-12-22T13:12:32;11.20;99.90
7844;DHT22;3967;48.702;9.326;2022-12-22T13:14:59;11.20;99.90
7844;DHT22;3967;48.702;9.326;2022-12-22T13:17:47;11.20;99.90
7844;DHT22;3967;48.702;9.326;2022-12-22T13:20:23;11.20;99.90
7844;DHT22;3967;48.702;9.326;2022-12-22T13:22:52;11.20;99.90
7844;DHT22;3967;48.702;9.326;2022-12-22T13:25:20;11.30;99.90
7844;DHT22;3967;48.702;9.326;2022-12-22T13:27:49;11.30;99.90
7844;DHT22;3967;48.702;9.326;2022-12-22T13:30:20;11.40;99.90
7844;DHT22;3967;48.702;9.326;2022-12-22T13:32:48;11.30;99.90
7844;DHT22;3967;48.702;9.326;2022-12-22T13:35:31;11.30;99.90
7844;DHT22;3967;48.702;9.326;2022-12-22T13:38:29;11.30;99.90
7844;DHT22;3967;48.702;9.326;2022-12-22T13:40:58;11.20;99.90
7844;DHT22;3967;48.702;9.326;2022-12-22T13:43:26;11.30;99.90
7844;DHT22;3967;48.702;9.326;2022-12-22T13:45:55;11.30;99.90
7844;DHT22;3967;48.702;9.326;2022-12-22T13:48:43;11.20;99.90
7844;DHT22;3967;48.702;9.326;2022-12-22T13:51:29;11.00;99.90
7844;DHT22;3967;48.702;9.326;2022-12-22T13:56:43;11.00;99.90
7844;DHT22;3967;48.702;9.326;2022-12-22T14:01:54;11.00;99.90
7844;DHT22;3967;48.702;9.326;2022-12-22T14:04:21;11.10;99.90
7844;DHT22;3967;48.702;9.326;2022-12-22T14:06:48;11.10;99.90
7844;DHT22;3967;48.702;9.326;2022-12-22T14:09:26;11.20;99.90
7844;DHT22;3967;48.702;9.326;2022-12-22T14:12:05;11.20;99.90
7844;DHT22;3967;48.702;9.326;2022-12-22T14:14:37;11.20;99.90
7844;DHT22;3967;48.702;9.326;2022-12-22T14:19:41;11.10;99.90
7844;DHT22;3967;48.702;9.326;2022-12-22T14:22:13;11.10;99.90
7844;DHT22;3967;48.702;9.326;2022-12-22T14:24:44;11.00;99.90
7844;DHT22;3967;48.702;9.326;2022-12-22T14:27:39;11.00;99.90
7844;DHT22;3967;48.702;9.326;2022-12-22T14:30:06;11.00;99.90
7844;DHT22;3967;48.702;9.326;2022-12-22T14:32:42;11.00;99.90
7844;DHT22;3967;48.702;9.326;2022-12-22T14:37:51;10.80;99.90
7844;DHT22;3967;48.702;9.326;2022-12-22T14:40:36;10.90;99.90
7844;DHT22;3967;48.702;9.326;2022-12-22T14:45:46;10.80;99.90
7844;DHT22;3967;48.702;9.326;2022-12-22T14:48:23;10.80;99.90
7844;DHT22;3967;48.702;9.326;2022-12-22T14:50:53;10.80;99.90
7844;DHT22;3967;48.702;9.326;2022-12-22T14:53:31;10.70;99.90
7844;DHT22;3967;48.702;9.326;2022-12-22T14:56:02;10.80;99.90
7844;DHT22;3967;48.702;9.326;2022-12-22T14:58:32;10.80;99.90
7844;DHT22;3967;48.702;9.326;2022-12-22T15:03:39;10.60;99.90
7844;DHT22;3967;48.702;9.326;2022-12-22T15:11:41;10.60;99.90
7844;DHT22;3967;48.702;9.326;2022-12-22T15:14:18;10.60;99.90
7844;DHT22;3967;48.702;9.326;2022-12-22T15:16:45;10.60;99.90
7844;DHT22;3967;48.702;9.326;2022-12-22T15:19:17;10.60;99.90
7844;DHT22;3967;48.702;9.326;2022-12-22T15:21:46;10.50;99.90
7844;DHT22;3967;48.702;9.326;2022-12-22T15:24:14;10.50;99.90
7844;DHT22;3967;48.702;9.326;2022-12-22T15:26:42;10.50;99.90
7844;DHT22;3967;48.702;9.326;2022-12-22T15:29:09;10.60;99.90
7844;DHT22;3967;48.702;9.326;2022-12-22T15:31:37;10.40;99.90
7844;DHT22;3967;48.702;9.326;2022-12-22T15:34:13;10.50;99.90
7844;DHT22;3967;48.702;9.326;2022-12-22T15:36:42;10.40;99.90
7844;DHT22;3967;48.702;9.326;2022-12-22T15:39:13;10.30;99.90
7844;DHT22;3967;48.702;9.326;2022-12-22T15:41:41;10.40;99.90
7844;DHT22;3967;48.702;9.326;2022-12-22T15:44:08;10.40;99.90
7844;DHT22;3967;48.702;9.326;2022-12-22T15:46:35;10.30;99.90
7844;DHT22;3967;48.702;9.326;2022-12-22T15:49:17;10.30;99.90
7844;DHT22;3967;48.702;9.326;2022-12-22T15:51:48;10.40;99.90
7844;DHT22;3967;48.702;9.326;2022-12-22T15:54:16;10.40;99.90
7844;DHT22;3967;48.702;9.326;2022-12-22T15:56:44;10.50;99.90
7844;DHT22;3967;48.702;9.326;2022-12-22T15:59:17;10.40;99.90
7844;DHT22;3967;48.702;9.326;2022-12-22T16:01:45;10.40;99.90
7844;DHT22;3967;48.702;9.326;2022-12-22T16:04:12;10.50;99.90
7844;DHT22;3967;48.702;9.326;2022-12-22T16:06:39;10.60;99.90
7844;DHT22;3967;48.702;9.326;2022-12-22T16:09:11;10.60;99.90
7844;DHT22;3967;48.702;9.326;2022-12-22T16:11:39;10.60;99.90
7844;DHT22;3967;48.702;9.326;2022-12-22T16:14:10;10.60;99.90
7844;DHT22;3967;48.702;9.326;2022-12-22T16:16:38;10.50;99.90
7844;DHT22;3967;48.702;9.326;2022-12-22T16:19:13;10.60;99.90
7844;DHT22;3967;48.702;9.326;2022-12-22T16:21:41;10.60;99.90
7844;DHT22;3967;48.702;9.326;2022-12-22T16:26:48;10.50;99.90
7844;DHT22;3967;48.702;9.326;2022-12-22T16:29:16;10.60;99.90
7844;DHT22;3967;48.702;9.326;2022-12-22T16:31:42;10.60;99.90
7844;DHT22;3967;48.702;9.326;2022-12-22T16:34:12;10.60;99.90
7844;DHT22;3967;48.702;9.326;2022-12-22T16:36:39;10.60;99.90
7844;DHT22;3967;48.702;9.326;2022-12-22T16:39:06;10.60;99.90
7844;DHT22;3967;48.702;9.326;2022-12-22T16:41:33;10.50;99.90
7844;DHT22;3967;48.702;9.326;2022-12-22T16:44:00;10.50;99.90
7844;DHT22;3967;48.702;9.326;2022-12-22T16:46:45;10.50;99.90
7844;DHT22;3967;48.702;9.326;2022-12-22T16:49:16;10.60;99.90
7844;DHT22;3967;48.702;9.326;2022-12-22T16:51:52;10.50;99.90
7844;DHT22;3967;48.702;9.326;2022-12-22T16:54:19;10.50;99.90
7844;DHT22;3967;48.702;9.326;2022-12-22T16:56:47;10.40;99.90
7844;DHT22;3967;48.702;9.326;2022-12-22T16:59:16;10.40;99.90
7844;DHT22;3967;48.702;9.326;2022-12-22T17:01:51;10.40;99.90
7844;DHT22;3967;48.702;9.326;2022-12-22T17:04:23;10.50;99.90
7844;DHT22;3967;48.702;9.326;2022-12-22T17:06:52;10.40;99.90
7844;DHT22;3967;48.702;9.326;2022-12-22T17:12:22;10.30;99.90
7844;DHT22;3967;48.702;9.326;2022-12-22T17:14:50;10.30;99.90
7844;DHT22;3967;48.702;9.326;2022-12-22T17:17:19;10.30;99.90
7844;DHT22;3967;48.702;9.326;2022-12-22T17:19:57;10.40;99.90
7844;DHT22;3967;48.702;9.326;2022-12-22T17:22:29;10.40;99.90
7844;DHT22;3967;48.702;9.326;2022-12-22T17:24:59;10.40;99.90
7844;DHT22;3967;48.702;9.326;2022-12-22T17:27:31;10.40;99.90
7844;DHT22;3967;48.702;9.326;2022-12-22T17:30:01;10.40;99.90
7844;DHT22;3967;48.702;9.326;2022-12-22T17:32:35;10.40;99.90
7844;DHT22;3967;48.702;9.326;2022-12-22T17:35:02;10.40;99.90
7844;DHT22;3967;48.702;9.326;2022-12-22T17:37:29;10.40;99.90
7844;DHT22;3967;48.702;9.326;2022-12-22T17:39:59;10.40;99.90
7844;DHT22;3967;48.702;9.326;2022-12-22T17:42:27;10.40;99.90
7844;DHT22;3967;48.702;9.326;2022-12-22T17:44:53;10.40;99.90
7844;DHT22;3967;48.702;9.326;2022-12-22T17:47:20;10.40;99.90
7844;DHT22;3967;48.702;9.326;2022-12-22T17:49:57;10.50;99.90
7844;DHT22;3967;48.702;9.326;2022-12-22T17:52:24;10.40;99.90
7844;DHT22;3967;48.702;9.326;2022-12-22T17:54:53;10.50;99.90
7844;DHT22;3967;48.702;9.326;2022-12-22T17:57:26;10.50;99.90
7844;DHT22;3967;48.702;9.326;2022-12-22T17:59:55;10.50;99.90
7844;DHT22;3967;48.702;9.326;2022-12-22T18:02:22;10.50;99.90
7844;DHT22;3967;48.702;9.326;2022-12-22T18:04:51;10.50;99.90
7844;DHT22;3967;48.702;9.326;2022-12-22T18:07:20;10.50;99.90
7844;DHT22;3967;48.702;9.326;2022-12-22T18:09:49;10.60;99.90
7844;DHT22;3967;48.702;9.326;2022-12-22T18:12:20;10.60;99.90
7844;DHT22;3967;48.702;9.326;2022-12-22T18:14:48;10.60;99.90
7844;DHT22;3967;48.702;9.326;2022-12-22T18:17:25;10.70;99.90
7844;DHT22;3967;48.702;9.326;2022-12-22T18:20:00;10.60;99.90
7844;DHT22;3967;48.702;9.326;2022-12-22T18:22:28;10.60;99.90
7844;DHT22;3967;48.702;9.326;2022-12-22T18:24:55;10.60;99.90
7844;DHT22;3967;48.702;9.326;2022-12-22T18:27:23;10.50;99.90
7844;DHT22;3967;48.702;9.326;2022-12-22T18:29:49;10.50;99.90
7844;DHT22;3967;48.702;9.326;2022-12-22T18:32:16;10.50;99.90
7844;DHT22;3967;48.702;9.326;2022-12-22T18:34:53;10.50;99.90
7844;DHT22;3967;48.702;9.326;2022-12-22T18:37:19;10.50;99.90
7844;DHT22;3967;48.702;9.326;2022-12-22T18:39:46;10.60;99.90
7844;DHT22;3967;48.702;9.326;2022-12-22T18:42:21;10.60;99.90
7844;DHT22;3967;48.702;9.326;2022-12-22T18:44:49;10.60;99.90
7844;DHT22;3967;48.702;9.326;2022-12-22T18:47:16;10.60;99.90
7844;DHT22;3967;48.702;9.326;2022-12-22T18:49:43;10.60;99.90
7844;DHT22;3967;48.702;9.326;2022-12-22T18:52:18;10.60;99.90
7844;DHT22;3967;48.702;9.326;2022-12-22T18:54:46;10.50;99.90
7844;DHT22;3967;48.702;9.326;2022-12-22T18:57:16;10.50;99.90
7844;DHT22;3967;48.702;9.326;2022-12-22T18:59:43;10.60;99.90
7844;DHT22;3967;48.702;9.326;2022-12-22T19:02:25;10.60;99.90
7844;DHT22;3967;48.702;9.326;2022-12-22T19:04:53;10.60;99.90
7844;DHT22;3967;48.702;9.326;2022-12-22T19:07:22;10.50;99.90
7844;DHT22;3967;48.702;9.326;2022-12-22T19:09:49;10.50;99.90
7844;DHT22;3967;48.702;9.326;2022-12-22T19:12:20;10.50;99.90
7844;DHT22;3967;48.702;9.326;2022-12-22T19:14:50;10.50;99.90
7844;DHT22;3967;48.702;9.326;2022-12-22T19:17:24;10.40;99.90
7844;DHT22;3967;48.702;9.326;2022-12-22T19:19:51;10.40;99.90